Weather reports worldwide

Advertisment
Perugia, Italy (16181): temperature & dewpoint: 01.08.2020 03:00:00 - 07.08.2020 03:00:00 (CEST)Perugia, Italy (16181): wind speed: 01.08.2020 03:00:00 - 07.08.2020 03:00:00 (CEST)Perugia, Italy (16181): wind direction: 01.08.2020 03:00:00 - 07.08.2020 03:00:00 (CEST)Perugia, Italy (16181): visibility: 01.08.2020 03:00:00 - 07.08.2020 03:00:00 (CEST)
Date & Time tt [°C] td [°C] ff [km/h] ff [kn] dd vv [km]
07.08.2020 03:00:00 20,0 16,0 13 7 NNE 10
07.08.2020 02:00:00 20,0 16,0 11 6 NE 10
07.08.2020 01:00:00 22,0 16,0 8 4 - 10
07.08.2020 00:00:00 21,0 16,0 11 6 NNE 10
06.08.2020 23:00:00 23,0 16,0 18 10 NE 10
06.08.2020 22:00:00 22,0 16,0 11 6 NNE 10
06.08.2020 21:00:00 24,0 15,0 26 14 NE 10
06.08.2020 20:00:00 25,0 14,0 31 17 NE 10
06.08.2020 19:00:00 27,0 14,0 28 15 NE 10
06.08.2020 18:00:00 27,0 13,0 34 18 NNE 10
06.08.2020 17:00:00 28,0 14,0 28 15 NE 10
06.08.2020 16:00:00 29,0 16,0 24 13 NNE 10
06.08.2020 15:00:00 28,0 15,0 24 13 NNE 10
06.08.2020 14:00:00 27,0 15,0 24 13 NE 10
06.08.2020 13:00:00 27,0 16,0 18 10 NE 10
06.08.2020 12:00:00 25,0 16,0 22 12 NE 10
06.08.2020 11:00:00 26,0 16,0 15 8 N 10
06.08.2020 10:00:00 24,0 16,0 9 5 NNE 10
06.08.2020 09:00:00 22,0 16,0 13 7 N 10
06.08.2020 08:00:00 20,0 15,0 9 5 NE 10
06.08.2020 07:00:00 17,0 15,0 4 2 - 10
06.08.2020 06:00:00 16,0 15,0 9 5 NNE 10
06.08.2020 05:00:00 16,0 15,0 9 5 N 10
06.08.2020 04:00:00 17,0 15,0 9 5 NNE 10
06.08.2020 03:00:00 17,0 14,0 11 6 NW 10
06.08.2020 02:00:00 18,0 14,0 13 7 N 10
06.08.2020 01:00:00 18,0 14,0 13 7 NW 10
06.08.2020 00:00:00 18,0 14,0 9 5 N 10
05.08.2020 23:00:00 19,0 14,0 11 6 N 10
05.08.2020 22:00:00 20,0 14,0 13 7 NNE 10
05.08.2020 21:00:00 21,0 14,0 13 7 NNE 10
05.08.2020 20:00:00 23,0 13,0 18 10 NE 10
05.08.2020 19:00:00 23,0 13,0 24 13 NE 10
05.08.2020 18:00:00 26,0 14,0 24 13 NNE 10
05.08.2020 17:00:00 26,0 14,0 21 11 NE 10
05.08.2020 16:00:00 26,0 14,0 28 15 NE 10
05.08.2020 15:00:00 26,0 15,0 22 12 ENE 10
05.08.2020 14:00:00 25,0 15,0 18 10 ENE 10
05.08.2020 13:00:00 23,0 15,0 16 9 NE 10
05.08.2020 12:00:00 23,0 14,0 11 6 NNE 10
05.08.2020 11:00:00 23,0 15,0 21 11 ENE 10
05.08.2020 10:00:00 23,0 14,0 15 8 NNE 10
05.08.2020 09:00:00 21,0 14,0 15 8 NE 10
05.08.2020 08:00:00 18,0 14,0 13 7 NNE 10
05.08.2020 07:00:00 16,0 14,0 13 7 N 10
05.08.2020 06:00:00 15,0 14,0 9 5 N 10
05.08.2020 05:00:00 16,0 14,0 13 7 N 10
05.08.2020 04:00:00 16,0 14,0 11 6 NNE 10
05.08.2020 03:00:00 17,0 15,0 11 6 N 10
05.08.2020 02:00:00 17,0 15,0 15 8 N 10
05.08.2020 01:00:00 18,0 15,0 13 7 NNE 10
05.08.2020 00:00:00 18,0 15,0 9 5 NE 10
04.08.2020 23:00:00 18,0 15,0 13 7 N 10
04.08.2020 22:00:00 19,0 15,0 9 5 N 10
04.08.2020 21:00:00 21,0 15,0 8 4 N 10
04.08.2020 20:00:00 23,0 15,0 4 2 - 10
04.08.2020 19:00:00 24,0 15,0 8 4 S 10
04.08.2020 18:00:00 24,0 15,0 9 5 E 10
04.08.2020 17:00:00 21,0 15,0 13 7 E 10
04.08.2020 16:00:00 20,0 15,0 13 7 SSE 10
04.08.2020 15:00:00 18,0 16,0 13 7 - 10
04.08.2020 14:00:00 16,0 14,0 42 23 WSW 5
04.08.2020 13:00:00 28,0 12,0 18 10 SSW 10
04.08.2020 12:00:00 28,0 12,0 21 11 S 10
04.08.2020 11:00:00 27,0 13,0 28 15 SSW 10
04.08.2020 10:00:00 26,0 14,0 22 12 S 10
04.08.2020 09:00:00 24,0 15,0 22 12 S 10
04.08.2020 08:00:00 23,0 16,0 18 10 S 10
04.08.2020 07:00:00 22,0 17,0 15 8 S 10
04.08.2020 06:00:00 22,0 17,0 11 6 S 10
04.08.2020 05:00:00 22,0 17,0 11 6 S 10
04.08.2020 04:00:00 22,0 17,0 13 7 S 10
04.08.2020 03:00:00 23,0 18,0 15 8 S 10
04.08.2020 02:00:00 21,0 17,0 2 1 - 10
04.08.2020 01:00:00 23,0 13,0 9 5 WSW 10
04.08.2020 00:00:00 25,0 18,0 13 7 WSW 10
03.08.2020 23:00:00 25,0 18,0 21 11 SSW 10
03.08.2020 22:00:00 26,0 18,0 16 9 SSW 10
03.08.2020 21:00:00 26,0 16,0 13 7 WNW 10
03.08.2020 20:00:00 29,0 18,0 22 12 SSW 10
03.08.2020 19:00:00 29,0 19,0 24 13 SSW 10
03.08.2020 18:00:00 31,0 17,0 28 15 SSW 10
03.08.2020 17:00:00 32,0 16,0 37 20 SW 10
03.08.2020 16:00:00 34,0 16,0 35 19 SW 10
03.08.2020 15:00:00 34,0 16,0 34 18 SW 10
03.08.2020 14:00:00 34,0 19,0 22 12 SSW 10
03.08.2020 13:00:00 31,0 19,0 13 7 S 10
03.08.2020 12:00:00 31,0 19,0 24 13 SSW 10
03.08.2020 11:00:00 29,0 18,0 21 11 SSW 10
03.08.2020 10:00:00 28,0 19,0 15 8 SSE 10
03.08.2020 09:00:00 26,0 20,0 11 6 SSE 10
03.08.2020 08:00:00 25,0 20,0 11 6 SE 10
03.08.2020 07:00:00 25,0 20,0 5 3 S 10
03.08.2020 06:00:00 24,0 21,0 4 2 - 10
03.08.2020 05:00:00 24,0 20,0 4 2 SE 10
03.08.2020 04:00:00 25,0 21,0 18 10 SSW 10
03.08.2020 03:00:00 25,0 21,0 15 8 SSW 10
03.08.2020 02:00:00 25,0 21,0 11 6 SW 10
03.08.2020 01:00:00 27,0 20,0 13 7 SSW 10
03.08.2020 00:00:00 28,0 18,0 11 6 SSW 10
02.08.2020 23:00:00 28,0 20,0 5 3 SSE 10
02.08.2020 22:00:00 30,0 18,0 5 3 S 10
02.08.2020 21:00:00 29,0 17,0 8 4 SE 10
02.08.2020 20:00:00 31,0 17,0 9 5 S 10
02.08.2020 19:00:00 36,0 14,0 13 7 W 10
02.08.2020 18:00:00 37,0 14,0 9 5 WNW 10
02.08.2020 17:00:00 37,0 13,0 9 5 - 10
02.08.2020 16:00:00 37,0 12,0 11 6 - 10
02.08.2020 15:00:00 36,0 14,0 11 6 WSW 10
02.08.2020 14:00:00 37,0 12,0 11 6 WSW 10
02.08.2020 13:00:00 35,0 11,0 13 7 WSW 10
02.08.2020 12:00:00 33,0 17,0 5 3 - 10
02.08.2020 11:00:00 31,0 18,0 9 5 W 10
02.08.2020 10:00:00 29,0 20,0 8 4 N 10
02.08.2020 09:00:00 27,0 18,0 9 5 NNW 10
02.08.2020 08:00:00 24,0 19,0 8 4 NNW 10
02.08.2020 07:00:00 21,0 19,0 15 8 N 10
02.08.2020 06:00:00 20,0 20,0 9 5 NNE 10
02.08.2020 05:00:00 22,0 19,0 5 3 N 10
02.08.2020 04:00:00 22,0 20,0 8 4 N 10
02.08.2020 03:00:00 23,0 19,0 4 2 N 10
02.08.2020 02:00:00 24,0 19,0 8 4 NNE 10
02.08.2020 01:00:00 26,0 17,0 5 3 N 10
02.08.2020 00:00:00 26,0 17,0 5 3 N 10
01.08.2020 23:00:00 29,0 16,0 9 5 WNW 10
01.08.2020 22:00:00 30,0 18,0 9 5 NNW 10
01.08.2020 21:00:00 32,0 16,0 13 7 N 10
01.08.2020 20:00:00 34,0 16,0 18 10 N 10
01.08.2020 19:00:00 37,0 14,0 9 5 NNW 10
01.08.2020 18:00:00 38,0 14,0 9 5 N 10
01.08.2020 17:00:00 37,0 13,0 8 4 - 10
01.08.2020 16:00:00 38,0 12,0 8 4 - 10
01.08.2020 15:00:00 37,0 15,0 9 5 NNE 10
01.08.2020 14:00:00 36,0 15,0 8 4 - 10
01.08.2020 13:00:00 34,0 16,0 5 3 - 10
01.08.2020 12:00:00 32,0 15,0 8 4 - 10
01.08.2020 11:00:00 30,0 17,0 8 4 W 10
01.08.2020 10:00:00 28,0 16,0 4 2 - 10
01.08.2020 09:00:00 25,0 16,0 8 4 N 10
01.08.2020 08:00:00 23,0 15,0 8 4 N 10
01.08.2020 07:00:00 20,0 15,0 8 4 NNW 10
01.08.2020 06:00:00 19,0 15,0 8 4 N 10
01.08.2020 05:00:00 20,0 15,0 5 3 N 10
01.08.2020 04:00:00 21,0 14,0 2 1 - 10
01.08.2020 03:00:00 21,0 14,0 5 3 NNW 10

tt = temperature
td = dewpoint
ff = wind speed
dd = wind direction
vv = visibility

Next stations